Ephrata, Pennsylvania
Current Conditions -  °F | °C
As of 8:53 AM on Monday 24 Nov 2014 (Local Time) from KLNS Reporting Station
Clear Clear  
Wind Chill: 64°   Ceiling: Unl
Heat Index: 64°   Visibility: 10mi
Dew Point: 59°   Wind: 18mph
Humidity: 84%   Direction: 190°S
Pressure: 29.63"   Gusts: 26mph
Location:  40.18°N, 76.18°W
Report Text: KLNS 241353Z 19016G23KT 10SM CLR 18/15 A2963 RMK AO2 SLP033 T01780150
Loading
Personal Weather Stations






























Interactive Weather Map New forecast layout! Learn more

10-Day Weather Forecast

Advertisements
Track Severe Weather on mobile